La Grange, North Carolina
Current Conditions -  °F | °C
As of 12:35 AM on Thursday 27 Nov 2014 (Local Time) from KISO Reporting Station
Haze Haze  
Wind Chill: 35°   Ceiling: Unl
Heat Index: 35°   Visibility: 5mi
Dew Point: 35°   Wind: 0mph
Humidity: 98%   Direction: NA
Pressure: 30.09"   Gusts: NA
Location:  35.31°N, 77.79°W
Report Text: KISO 270535Z AUTO 00000KT 5SM BR CLR 02/02 A3009 RMK AO2 T00190016
Loading
Personal Weather Stations






























Interactive Weather Map New forecast layout! Learn more

10-Day Weather Forecast

Advertisements
Track Severe Weather on mobile